createdAt,value
2019-03-22T00:00:41.275Z,3.20
2019-03-22T00:01:41.276Z,3.22
2019-03-22T00:02:41.344Z,3.25
2019-03-22T00:03:41.279Z,3.31
2019-03-22T00:04:41.348Z,3.33
2019-03-22T00:05:41.320Z,3.35
2019-03-22T00:06:41.314Z,3.32
2019-03-22T00:07:41.248Z,3.29
2019-03-22T00:08:41.329Z,3.25
2019-03-22T00:09:41.347Z,3.21
2019-03-22T00:10:41.329Z,3.17
2019-03-22T00:11:41.300Z,3.13
2019-03-22T00:12:41.326Z,3.09
2019-03-22T00:13:41.366Z,3.07
2019-03-22T00:14:41.372Z,3.10
2019-03-22T00:15:41.323Z,3.07
2019-03-22T00:16:41.351Z,3.03
2019-03-22T00:17:41.317Z,3.02
2019-03-22T00:18:41.264Z,2.99
2019-03-22T00:19:41.294Z,2.99
2019-03-22T00:20:41.421Z,2.98
2019-03-22T00:21:41.378Z,2.98
2019-03-22T00:22:41.395Z,2.94
2019-03-22T00:23:41.391Z,2.95
2019-03-22T00:24:41.378Z,2.92
2019-03-22T00:25:41.290Z,2.90
2019-03-22T00:26:41.297Z,2.87
2019-03-22T00:27:41.305Z,2.88
2019-03-22T00:28:41.362Z,2.88
2019-03-22T00:29:41.300Z,2.87
2019-03-22T00:30:41.380Z,2.85
2019-03-22T00:31:41.300Z,2.84
2019-03-22T00:32:41.365Z,2.81
2019-03-22T00:33:41.364Z,2.80
2019-03-22T00:34:41.302Z,2.74
2019-03-22T00:35:41.227Z,2.70
2019-03-22T00:36:41.416Z,2.66
2019-03-22T00:37:41.302Z,2.68
2019-03-22T00:38:41.297Z,2.68
2019-03-22T00:39:41.355Z,2.65
2019-03-22T00:40:41.329Z,2.65
2019-03-22T00:41:41.356Z,2.66
2019-03-22T00:42:41.243Z,2.68
2019-03-22T00:43:41.238Z,2.69
2019-03-22T00:44:41.363Z,2.69
2019-03-22T00:45:41.335Z,2.70
2019-03-22T00:46:41.297Z,2.70
2019-03-22T00:47:41.374Z,2.69
2019-03-22T00:48:41.332Z,2.68
2019-03-22T00:49:41.346Z,2.66
2019-03-22T00:50:41.411Z,2.65
2019-03-22T00:51:41.380Z,2.62
2019-03-22T00:52:41.347Z,2.62
2019-03-22T00:53:41.377Z,2.65
2019-03-22T00:54:41.359Z,2.68
2019-03-22T00:55:41.343Z,2.72
2019-03-22T00:56:41.411Z,2.70
2019-03-22T00:57:41.408Z,2.73
2019-03-22T00:58:41.363Z,2.70
2019-03-22T00:59:41.409Z,2.66
2019-03-22T01:00:41.418Z,2.65
2019-03-22T01:01:41.348Z,2.62
2019-03-22T01:02:41.413Z,2.58
2019-03-22T01:03:41.408Z,2.54
2019-03-22T01:04:41.404Z,2.50
2019-03-22T01:05:41.319Z,2.50
2019-03-22T01:06:41.387Z,2.54
2019-03-22T01:07:41.319Z,2.62
2019-03-22T01:08:41.327Z,2.70
2019-03-22T01:09:41.329Z,2.79
2019-03-22T01:10:41.389Z,2.85
2019-03-22T01:11:41.389Z,2.87
2019-03-22T01:12:41.396Z,2.84
2019-03-22T01:13:41.327Z,2.81
2019-03-22T01:14:41.405Z,2.80
2019-03-22T01:15:41.328Z,2.77
2019-03-22T01:16:41.392Z,2.74
2019-03-22T01:17:41.433Z,2.73
2019-03-22T01:18:41.520Z,2.66
2019-03-22T01:19:41.336Z,2.65
2019-03-22T01:20:41.418Z,2.61
2019-03-22T01:21:41.355Z,2.59
2019-03-22T01:22:41.417Z,2.58
2019-03-22T01:23:41.415Z,2.58
2019-03-22T01:24:41.420Z,2.57
2019-03-22T01:25:41.480Z,2.55
2019-03-22T01:26:41.431Z,2.54
2019-03-22T01:27:41.650Z,2.54
2019-03-22T01:28:41.355Z,2.52
2019-03-22T01:29:41.419Z,2.55
2019-03-22T01:30:41.369Z,2.59
2019-03-22T01:31:41.316Z,2.62
2019-03-22T01:32:41.304Z,2.63
2019-03-22T01:33:41.380Z,2.66
2019-03-22T01:34:41.365Z,2.68
2019-03-22T01:35:41.415Z,2.69
2019-03-22T01:36:41.375Z,2.69
2019-03-22T01:37:41.450Z,2.66
2019-03-22T01:38:41.373Z,2.65
2019-03-22T01:39:41.414Z,2.62
2019-03-22T01:40:41.430Z,2.58
2019-03-22T01:41:41.384Z,2.55
2019-03-22T01:42:41.387Z,2.52
2019-03-22T01:43:41.417Z,2.52
2019-03-22T01:44:41.328Z,2.47
2019-03-22T01:45:41.425Z,2.46
2019-03-22T01:46:41.437Z,2.44
2019-03-22T01:47:41.435Z,2.44
2019-03-22T01:48:41.447Z,2.50
2019-03-22T01:49:41.438Z,2.46
2019-03-22T01:50:41.448Z,2.46
2019-03-22T01:51:41.437Z,2.44
2019-03-22T01:52:41.388Z,2.46
2019-03-22T01:53:41.372Z,2.43
2019-03-22T01:54:41.329Z,2.47
2019-03-22T01:55:41.447Z,2.50
2019-03-22T01:56:41.388Z,2.51
2019-03-22T01:57:52.562Z,2.54
2019-03-22T01:58:41.392Z,2.54
2019-03-22T01:59:41.441Z,2.50
2019-03-22T02:00:41.323Z,2.47
2019-03-22T02:01:41.457Z,2.44
2019-03-22T02:02:41.330Z,2.40
2019-03-22T02:03:41.470Z,2.38
2019-03-22T02:04:41.396Z,2.36
2019-03-22T02:05:41.368Z,2.39
2019-03-22T02:06:41.435Z,2.43
2019-03-22T02:07:41.496Z,2.55
2019-03-22T02:08:41.366Z,2.61
2019-03-22T02:09:41.432Z,2.68
2019-03-22T02:10:41.395Z,2.68
2019-03-22T02:11:41.433Z,2.68
2019-03-22T02:12:41.435Z,2.65
2019-03-22T02:13:41.436Z,2.62
2019-03-22T02:14:41.441Z,2.57
2019-03-22T02:15:41.391Z,2.55
2019-03-22T02:16:41.466Z,2.54
2019-03-22T02:17:41.474Z,2.57
2019-03-22T02:18:41.402Z,2.57
2019-03-22T02:19:41.463Z,2.55
2019-03-22T02:20:41.471Z,2.54
2019-03-22T02:21:41.398Z,2.51
2019-03-22T02:22:41.425Z,2.46
2019-03-22T02:23:41.417Z,2.44
2019-03-22T02:24:41.413Z,2.39
2019-03-22T02:25:41.303Z,2.36
2019-03-22T02:26:41.354Z,2.32
2019-03-22T02:27:41.393Z,2.27
2019-03-22T02:28:41.373Z,2.24
2019-03-22T02:29:41.392Z,2.23
2019-03-22T02:30:41.435Z,2.17
2019-03-22T02:31:41.430Z,2.17
2019-03-22T02:32:41.347Z,2.13
2019-03-22T02:33:41.341Z,2.19
2019-03-22T02:34:41.357Z,2.26
2019-03-22T02:35:41.359Z,2.32
2019-03-22T02:36:41.357Z,2.39
2019-03-22T02:37:41.335Z,2.43
2019-03-22T02:38:41.355Z,2.50
2019-03-22T02:39:41.591Z,2.55
2019-03-22T02:40:41.341Z,2.55
2019-03-22T02:41:41.320Z,2.57
2019-03-22T02:42:41.441Z,2.55
2019-03-22T02:43:41.316Z,2.52
2019-03-22T02:44:41.307Z,2.50
2019-03-22T02:45:41.401Z,2.46
2019-03-22T02:46:41.469Z,2.42
2019-03-22T02:47:41.526Z,2.39
2019-03-22T02:48:41.462Z,2.33
2019-03-22T02:49:41.464Z,2.28
2019-03-22T02:50:41.475Z,2.24
2019-03-22T02:51:41.466Z,2.19
2019-03-22T02:52:41.435Z,2.15
2019-03-22T02:53:41.351Z,2.15
2019-03-22T02:54:41.395Z,2.16
2019-03-22T02:55:41.549Z,2.15
2019-03-22T02:56:41.465Z,2.17
2019-03-22T02:57:41.473Z,2.20
2019-03-22T02:58:41.477Z,2.24
2019-03-22T02:59:41.495Z,2.26
2019-03-22T03:00:41.473Z,2.26
2019-03-22T03:01:41.469Z,2.26
2019-03-22T03:02:41.468Z,2.23
2019-03-22T03:03:41.529Z,2.20
2019-03-22T03:04:41.434Z,2.15
2019-03-22T03:05:41.473Z,2.12
2019-03-22T03:06:41.413Z,2.15
2019-03-22T03:07:41.428Z,2.20
2019-03-22T03:08:41.487Z,2.21
2019-03-22T03:09:41.417Z,2.26
2019-03-22T03:10:41.402Z,2.23
2019-03-22T03:11:41.408Z,2.19
2019-03-22T03:12:41.449Z,2.15
2019-03-22T03:13:41.490Z,2.10
2019-03-22T03:14:41.477Z,2.09
2019-03-22T03:15:41.512Z,2.04
2019-03-22T03:16:41.506Z,1.99
2019-03-22T03:17:41.446Z,1.97
2019-03-22T03:18:41.503Z,1.92
2019-03-22T03:19:41.505Z,1.92
2019-03-22T03:20:41.512Z,1.91
2019-03-22T03:21:41.480Z,1.90
2019-03-22T03:22:41.494Z,1.88
2019-03-22T03:23:41.509Z,1.87
2019-03-22T03:24:41.439Z,1.87
2019-03-22T03:25:41.498Z,1.84
2019-03-22T03:26:41.565Z,1.80
2019-03-22T03:27:41.443Z,1.80
2019-03-22T03:28:41.448Z,1.80
2019-03-22T03:29:41.438Z,1.83
2019-03-22T03:30:41.436Z,1.91
2019-03-22T03:31:41.466Z,1.91
2019-03-22T03:32:41.522Z,1.90
2019-03-22T03:33:41.510Z,1.84
2019-03-22T03:34:41.474Z,1.91
2019-03-22T03:35:41.504Z,2.01
2019-03-22T03:36:41.532Z,2.06
2019-03-22T03:37:41.494Z,2.10
2019-03-22T03:38:41.464Z,2.13
2019-03-22T03:39:41.506Z,2.08
2019-03-22T03:40:41.456Z,2.06
2019-03-22T03:41:41.447Z,2.05
2019-03-22T03:42:41.456Z,2.01
2019-03-22T03:43:41.499Z,1.98
2019-03-22T03:44:41.523Z,1.92
2019-03-22T03:45:41.497Z,1.87
2019-03-22T03:46:41.366Z,1.80
2019-03-22T03:47:41.427Z,1.76
2019-03-22T03:48:41.463Z,1.72
2019-03-22T03:49:41.467Z,1.68
2019-03-22T03:50:41.531Z,1.64
2019-03-22T03:51:41.430Z,1.61
2019-03-22T03:52:41.503Z,1.60
2019-03-22T03:53:41.484Z,1.58
2019-03-22T03:54:41.464Z,1.56
2019-03-22T03:55:41.445Z,1.54
2019-03-22T03:56:41.447Z,1.52
2019-03-22T03:57:41.502Z,1.52
2019-03-22T03:58:52.133Z,1.54
2019-03-22T03:59:41.439Z,1.52
2019-03-22T04:00:41.508Z,1.50
2019-03-22T04:01:41.521Z,1.47
2019-03-22T04:02:41.449Z,1.45
2019-03-22T04:03:41.443Z,1.42
2019-03-22T04:04:41.448Z,1.42
2019-03-22T04:05:41.517Z,1.42
2019-03-22T04:06:41.515Z,1.45
2019-03-22T04:07:41.422Z,1.50
2019-03-22T04:08:41.451Z,1.53
2019-03-22T04:09:41.508Z,1.52
2019-03-22T04:10:41.427Z,1.50
2019-03-22T04:11:41.391Z,1.54
2019-03-22T04:12:41.431Z,1.60
2019-03-22T04:13:41.508Z,1.67
2019-03-22T04:14:41.512Z,1.72
2019-03-22T04:15:41.461Z,1.76
2019-03-22T04:16:41.459Z,1.79
2019-03-22T04:17:41.531Z,1.80
2019-03-22T04:18:41.562Z,1.79
2019-03-22T04:19:41.525Z,1.76
2019-03-22T04:20:41.458Z,1.74
2019-03-22T04:21:41.527Z,1.69
2019-03-22T04:22:41.466Z,1.64
2019-03-22T04:23:41.427Z,1.60
2019-03-22T04:24:41.533Z,1.61
2019-03-22T04:25:41.569Z,1.64
2019-03-22T04:26:41.604Z,1.63
2019-03-22T04:27:41.489Z,1.61
2019-03-22T04:28:41.565Z,1.65
2019-03-22T04:29:41.534Z,1.69
2019-03-22T04:30:41.490Z,1.72
2019-03-22T04:31:41.558Z,1.69
2019-03-22T04:32:41.493Z,1.67
2019-03-22T04:33:41.509Z,1.63
2019-03-22T04:34:41.562Z,1.60
2019-03-22T04:35:41.482Z,1.56
2019-03-22T04:36:41.439Z,1.50
2019-03-22T04:37:41.504Z,1.47
2019-03-22T04:38:41.610Z,1.42
2019-03-22T04:39:41.563Z,1.38
2019-03-22T04:40:41.579Z,1.35
2019-03-22T04:41:41.445Z,1.34
2019-03-22T04:42:41.605Z,1.28
2019-03-22T04:43:41.550Z,1.25
2019-03-22T04:44:41.443Z,1.18
2019-03-22T04:45:41.570Z,1.18
2019-03-22T04:46:41.575Z,1.18
2019-03-22T04:47:41.448Z,1.21
2019-03-22T04:48:41.514Z,1.18
2019-03-22T04:49:41.462Z,1.15
2019-03-22T04:50:41.515Z,1.13
2019-03-22T04:51:41.544Z,1.11
2019-03-22T04:52:41.559Z,1.09
2019-03-22T04:53:41.592Z,1.09
2019-03-22T04:54:41.547Z,1.11
2019-03-22T04:55:41.447Z,1.17
2019-03-22T04:56:41.523Z,1.20
2019-03-22T04:57:41.579Z,1.21
2019-03-22T04:58:41.455Z,1.23
2019-03-22T04:59:41.530Z,1.24
2019-03-22T05:00:41.606Z,1.27
2019-03-22T05:01:41.515Z,1.29
2019-03-22T05:02:41.495Z,1.34
2019-03-22T05:03:41.588Z,1.39
2019-03-22T05:04:41.537Z,1.45
2019-03-22T05:05:41.458Z,1.45
2019-03-22T05:06:41.559Z,1.45
2019-03-22T05:07:41.523Z,1.46
2019-03-22T05:08:41.589Z,1.47
2019-03-22T05:09:41.540Z,1.47
2019-03-22T05:10:41.618Z,1.50
2019-03-22T05:11:41.518Z,1.50
2019-03-22T05:12:41.522Z,1.54
2019-03-22T05:13:41.525Z,1.56
2019-03-22T05:14:41.520Z,1.58
2019-03-22T05:15:41.496Z,1.57
2019-03-22T05:16:41.496Z,1.64
2019-03-22T05:17:41.566Z,1.68
2019-03-22T05:18:43.937Z,1.71
2019-03-22T05:19:41.502Z,1.76
2019-03-22T05:20:41.570Z,1.84
2019-03-22T05:21:41.507Z,1.91
2019-03-22T05:22:41.497Z,1.92
2019-03-22T05:23:41.568Z,1.97
2019-03-22T05:24:41.510Z,1.97
2019-03-22T05:25:41.509Z,1.98
2019-03-22T05:26:41.534Z,2.01
2019-03-22T05:27:41.506Z,1.99
2019-03-22T05:28:41.478Z,1.99
2019-03-22T05:29:41.517Z,2.01
2019-03-22T05:30:41.480Z,2.02
2019-03-22T05:31:41.483Z,2.04
2019-03-22T05:32:41.510Z,2.05
2019-03-22T05:33:41.486Z,2.09
2019-03-22T05:34:41.614Z,2.13
2019-03-22T05:35:41.547Z,2.20
2019-03-22T05:36:41.611Z,2.24
2019-03-22T05:37:41.607Z,2.28
2019-03-22T05:38:41.580Z,2.31
2019-03-22T05:39:41.622Z,2.33
2019-03-22T05:40:41.598Z,2.39
2019-03-22T05:41:41.566Z,2.42
2019-03-22T05:42:41.608Z,2.44
2019-03-22T05:43:41.592Z,2.47
2019-03-22T05:44:41.598Z,2.50
2019-03-22T05:45:41.524Z,2.52
2019-03-22T05:46:41.610Z,2.55
2019-03-22T05:47:41.600Z,2.59
2019-03-22T05:48:41.546Z,2.62
2019-03-22T05:49:41.597Z,2.69
2019-03-22T05:50:41.616Z,2.72
2019-03-22T05:51:41.605Z,2.76
2019-03-22T05:52:41.540Z,2.79
2019-03-22T05:53:41.495Z,2.83
2019-03-22T05:54:41.603Z,2.85
2019-03-22T05:55:41.451Z,2.88
2019-03-22T05:56:41.513Z,2.92
2019-03-22T05:57:41.541Z,2.99
2019-03-22T05:58:41.590Z,3.03
2019-03-22T05:59:42.741Z,3.06
2019-03-22T06:00:41.592Z,3.12
2019-03-22T06:01:41.584Z,3.17
2019-03-22T06:02:41.593Z,3.21
2019-03-22T06:03:41.581Z,3.24
2019-03-22T06:04:41.519Z,3.28
2019-03-22T06:05:41.584Z,3.31
2019-03-22T06:06:41.562Z,3.35
2019-03-22T06:07:41.599Z,3.37
2019-03-22T06:08:41.496Z,3.40
2019-03-22T06:09:41.599Z,3.43
2019-03-22T06:10:41.505Z,3.46
2019-03-22T06:11:41.570Z,3.48
2019-03-22T06:12:41.504Z,3.53
2019-03-22T06:13:44.252Z,3.55
2019-03-22T06:14:41.632Z,3.57
2019-03-22T06:15:41.619Z,3.61
2019-03-22T06:16:41.549Z,3.64
2019-03-22T06:17:51.233Z,3.65
2019-03-22T06:18:41.619Z,3.66
2019-03-22T06:19:41.624Z,3.68
2019-03-22T06:20:41.630Z,3.69
2019-03-22T06:21:41.618Z,3.68
2019-03-22T06:22:41.588Z,3.72
2019-03-22T06:23:41.546Z,3.73
2019-03-22T06:24:41.550Z,3.74
2019-03-22T06:25:41.592Z,3.77
2019-03-22T06:26:41.612Z,3.81
2019-03-22T06:27:41.552Z,3.83
2019-03-22T06:28:41.578Z,3.85
2019-03-22T06:29:53.390Z,3.89
2019-03-22T06:30:41.597Z,3.95
2019-03-22T06:31:41.608Z,3.99
2019-03-22T06:32:41.613Z,3.99
2019-03-22T06:33:41.519Z,4.00
2019-03-22T06:34:41.583Z,4.04
2019-03-22T06:35:41.560Z,4.06
2019-03-22T06:36:41.572Z,4.07
2019-03-22T06:37:41.633Z,4.10
2019-03-22T06:38:41.625Z,4.11
2019-03-22T06:39:41.546Z,4.17
2019-03-22T06:40:41.564Z,4.19
2019-03-22T06:41:41.562Z,4.22
2019-03-22T06:42:41.645Z,4.24
2019-03-22T06:43:41.583Z,4.22
2019-03-22T06:44:41.589Z,4.22
2019-03-22T06:45:41.526Z,4.22
2019-03-22T06:46:41.575Z,4.21
2019-03-22T06:47:41.629Z,4.18
2019-03-22T06:48:41.592Z,4.19
2019-03-22T06:49:41.536Z,4.19
2019-03-22T06:50:41.566Z,4.18
2019-03-22T06:51:41.567Z,4.14
2019-03-22T06:52:41.646Z,4.11
2019-03-22T06:53:41.583Z,4.11
2019-03-22T06:54:41.650Z,4.11
2019-03-22T06:55:41.582Z,4.11
2019-03-22T06:56:41.714Z,4.11
2019-03-22T06:57:41.588Z,4.18
2019-03-22T06:58:41.593Z,4.22
2019-03-22T06:59:41.540Z,4.29
2019-03-22T07:00:41.543Z,4.36
2019-03-22T07:01:41.645Z,4.40
2019-03-22T07:02:41.650Z,4.41
2019-03-22T07:03:41.637Z,4.47
2019-03-22T07:04:41.593Z,4.47
2019-03-22T07:05:41.713Z,4.46
2019-03-22T07:06:41.581Z,4.46
2019-03-22T07:07:41.652Z,4.48
2019-03-22T07:08:41.577Z,4.54
2019-03-22T07:09:41.586Z,4.55
2019-03-22T07:10:41.655Z,4.62
2019-03-22T07:11:42.025Z,4.55
2019-03-22T07:12:41.583Z,4.48
2019-03-22T07:13:41.660Z,4.40
2019-03-22T07:14:41.616Z,4.32
2019-03-22T07:15:41.584Z,4.35
2019-03-22T07:16:41.586Z,4.39
2019-03-22T07:17:41.716Z,4.41
2019-03-22T07:18:41.587Z,4.47
2019-03-22T07:19:41.603Z,4.48
2019-03-22T07:20:41.599Z,4.50
2019-03-22T07:21:41.632Z,4.51
2019-03-22T07:22:41.663Z,4.59
2019-03-22T07:23:41.656Z,4.60
2019-03-22T07:24:41.618Z,4.64
2019-03-22T07:25:41.610Z,4.60
2019-03-22T07:26:41.666Z,4.60
2019-03-22T07:27:41.616Z,4.62
2019-03-22T07:28:41.670Z,4.66
2019-03-22T07:29:41.672Z,4.67
2019-03-22T07:30:41.675Z,4.71
2019-03-22T07:31:41.605Z,4.74
2019-03-22T07:32:41.679Z,4.74
2019-03-22T07:33:41.603Z,4.69
2019-03-22T07:34:41.672Z,4.66
2019-03-22T07:35:41.678Z,4.54
2019-03-22T07:36:41.617Z,4.50
2019-03-22T07:37:41.677Z,4.46
2019-03-22T07:38:41.674Z,4.47
2019-03-22T07:39:41.691Z,4.51
2019-03-22T07:40:41.620Z,4.51
2019-03-22T07:41:41.679Z,4.54
2019-03-22T07:42:41.610Z,4.59
2019-03-22T07:43:41.615Z,4.64
2019-03-22T07:44:41.685Z,4.69
2019-03-22T07:45:41.606Z,4.75
2019-03-22T07:46:41.687Z,4.84
2019-03-22T07:47:41.690Z,4.85
2019-03-22T07:48:41.683Z,4.87
2019-03-22T07:49:41.613Z,4.91
2019-03-22T07:50:41.671Z,4.89
2019-03-22T07:51:41.686Z,4.88
2019-03-22T07:52:41.629Z,4.85
2019-03-22T07:53:41.689Z,4.82
2019-03-22T07:54:41.617Z,4.81
2019-03-22T07:55:41.697Z,4.74
2019-03-22T07:56:41.613Z,4.70
2019-03-22T07:57:41.608Z,4.66
2019-03-22T07:58:41.575Z,4.62
2019-03-22T07:59:41.671Z,4.63
2019-03-22T08:00:41.583Z,4.69
2019-03-22T08:01:41.667Z,4.80
2019-03-22T08:02:41.681Z,4.91
2019-03-22T08:03:41.637Z,5.02
2019-03-22T08:04:41.675Z,5.10
2019-03-22T08:05:51.008Z,5.19
2019-03-22T08:06:41.613Z,5.25
2019-03-22T08:07:41.611Z,5.27
2019-03-22T08:08:41.685Z,5.30
2019-03-22T08:09:41.689Z,5.23
2019-03-22T08:10:41.715Z,5.35
2019-03-22T08:11:41.735Z,5.42
2019-03-22T08:12:41.624Z,5.46
2019-03-22T08:13:41.689Z,5.57
2019-03-22T08:14:41.666Z,5.64
2019-03-22T08:15:41.707Z,5.66
2019-03-22T08:16:41.631Z,5.74
2019-03-22T08:17:41.707Z,5.84
2019-03-22T08:18:41.657Z,5.82
2019-03-22T08:19:41.673Z,5.86
2019-03-22T08:20:41.722Z,5.86
2019-03-22T08:21:41.712Z,5.74
2019-03-22T08:22:41.715Z,5.67
2019-03-22T08:23:41.749Z,5.68
2019-03-22T08:24:41.750Z,5.71
2019-03-22T08:25:43.555Z,5.73
2019-03-22T08:26:41.710Z,5.70
2019-03-22T08:27:41.666Z,5.66
2019-03-22T08:28:41.669Z,5.63
2019-03-22T08:29:41.680Z,5.67
2019-03-22T08:30:43.285Z,5.75
2019-03-22T08:31:41.670Z,5.78
2019-03-22T08:32:41.710Z,5.79
2019-03-22T08:33:41.644Z,5.86
2019-03-22T08:34:41.656Z,5.91
2019-03-22T08:35:41.740Z,5.77
2019-03-22T08:36:41.617Z,5.79
2019-03-22T08:37:52.035Z,5.78
2019-03-22T08:38:41.739Z,5.82
2019-03-22T08:39:41.755Z,5.92
2019-03-22T08:40:41.767Z,6.04
2019-03-22T08:41:41.733Z,6.27
2019-03-22T08:42:41.752Z,6.47
2019-03-22T08:43:41.739Z,6.55
2019-03-22T08:44:41.659Z,6.61
2019-03-22T08:45:41.726Z,6.66
2019-03-22T08:46:41.680Z,6.72
2019-03-22T08:47:41.746Z,6.63
2019-03-22T08:48:41.653Z,6.74
2019-03-22T08:49:41.882Z,6.91
2019-03-22T08:50:41.725Z,7.07
2019-03-22T08:51:41.685Z,7.24
2019-03-22T08:52:41.685Z,7.45
2019-03-22T08:53:54.365Z,7.71
2019-03-22T08:54:41.666Z,7.99
2019-03-22T08:55:41.654Z,8.23
2019-03-22T08:56:41.778Z,8.31
2019-03-22T08:57:41.737Z,8.16
2019-03-22T08:58:41.661Z,8.09
2019-03-22T08:59:41.666Z,8.17
2019-03-22T09:00:41.662Z,8.20
2019-03-22T09:01:41.753Z,8.24
2019-03-22T09:02:41.742Z,8.43
2019-03-22T09:03:41.765Z,8.56
2019-03-22T09:04:41.699Z,8.69
2019-03-22T09:05:41.735Z,8.89
2019-03-22T09:06:41.722Z,9.15
2019-03-22T09:07:41.598Z,9.47
2019-03-22T09:08:41.687Z,9.68
2019-03-22T09:09:42.060Z,10.01
2019-03-22T09:10:41.641Z,10.27
2019-03-22T09:11:41.686Z,10.50
2019-03-22T09:12:41.650Z,10.53
2019-03-22T09:13:41.655Z,10.79
2019-03-22T09:14:41.721Z,10.91
2019-03-22T09:15:42.139Z,11.09
2019-03-22T09:16:41.672Z,11.31
2019-03-22T09:17:41.672Z,11.27
2019-03-22T09:18:41.720Z,11.28
2019-03-22T09:19:41.690Z,11.40
2019-03-22T09:20:41.761Z,11.45
2019-03-22T09:21:41.820Z,11.51
2019-03-22T09:22:41.768Z,11.67
2019-03-22T09:23:41.676Z,11.89
2019-03-22T09:24:41.708Z,12.02
2019-03-22T09:25:41.781Z,12.13
2019-03-22T09:26:47.520Z,12.16
2019-03-22T09:27:41.740Z,12.29
2019-03-22T09:28:41.748Z,12.42
2019-03-22T09:29:41.681Z,12.47
2019-03-22T09:30:41.759Z,12.43
2019-03-22T09:31:41.726Z,12.64
2019-03-22T09:32:41.701Z,12.82
2019-03-22T09:33:41.743Z,13.10
2019-03-22T09:34:41.721Z,13.32
2019-03-22T09:35:41.762Z,13.54
2019-03-22T09:36:41.733Z,13.86
2019-03-22T09:37:41.757Z,14.13
2019-03-22T09:38:41.756Z,14.36
2019-03-22T09:39:41.735Z,14.51
2019-03-22T09:40:41.682Z,14.61
2019-03-22T09:41:41.759Z,14.65
2019-03-22T09:42:41.688Z,14.55
2019-03-22T09:43:41.825Z,14.71
2019-03-22T09:44:43.781Z,14.73
2019-03-22T09:45:41.728Z,14.68
2019-03-22T09:46:41.764Z,14.69
2019-03-22T09:47:41.732Z,14.65
2019-03-22T09:48:41.764Z,14.68
2019-03-22T09:49:41.735Z,14.75
2019-03-22T09:50:41.765Z,14.78
2019-03-22T09:51:41.687Z,14.79
2019-03-22T09:52:41.706Z,14.73
2019-03-22T09:53:41.776Z,14.61
2019-03-22T09:54:41.691Z,14.64
2019-03-22T09:55:41.771Z,14.89
2019-03-22T09:56:46.758Z,15.06
2019-03-22T09:57:41.784Z,14.98
2019-03-22T09:58:41.771Z,14.94
2019-03-22T09:59:41.773Z,15.04
2019-03-22T10:00:41.803Z,15.13
2019-03-22T10:01:41.728Z,15.21
2019-03-22T10:02:41.723Z,15.47
2019-03-22T10:03:42.734Z,15.69
2019-03-22T10:04:41.799Z,15.94
2019-03-22T10:05:41.704Z,16.16
2019-03-22T10:06:41.781Z,16.41
2019-03-22T10:07:41.781Z,16.48
2019-03-22T10:08:41.751Z,16.54
2019-03-22T10:09:41.746Z,16.69
2019-03-22T10:10:41.781Z,16.77
2019-03-22T10:11:41.781Z,17.02
2019-03-22T10:12:41.766Z,17.20
2019-03-22T10:13:41.793Z,17.33
2019-03-22T10:14:41.762Z,17.51
2019-03-22T10:15:41.754Z,17.57
2019-03-22T10:16:41.786Z,17.72
2019-03-22T10:17:41.836Z,17.89
2019-03-22T10:18:41.852Z,17.62
2019-03-22T10:19:42.267Z,17.62
2019-03-22T10:20:41.787Z,17.79
2019-03-22T10:21:41.815Z,18.10
2019-03-22T10:22:41.842Z,18.29
2019-03-22T10:23:41.806Z,18.51
2019-03-22T10:24:41.737Z,18.73
2019-03-22T10:25:41.744Z,18.99
2019-03-22T10:26:41.791Z,19.21
2019-03-22T10:27:41.813Z,19.25
2019-03-22T10:28:41.808Z,19.47
2019-03-22T10:29:41.820Z,19.57
2019-03-22T10:30:41.872Z,19.47
2019-03-22T10:31:41.807Z,19.60
2019-03-22T10:32:41.806Z,19.68
2019-03-22T10:33:41.786Z,19.84
2019-03-22T10:34:41.833Z,20.05
2019-03-22T10:35:41.734Z,20.24
2019-03-22T10:36:41.715Z,20.24
2019-03-22T10:37:41.746Z,20.32
2019-03-22T10:38:41.855Z,20.25
2019-03-22T10:39:41.723Z,20.35
2019-03-22T10:40:41.862Z,20.45
2019-03-22T10:41:41.773Z,20.46
2019-03-22T10:42:41.793Z,20.64
2019-03-22T10:43:41.728Z,20.72
2019-03-22T10:44:41.847Z,20.84
2019-03-22T10:45:41.722Z,21.05
2019-03-22T10:46:41.792Z,21.10
2019-03-22T10:47:41.798Z,20.87
2019-03-22T10:48:41.753Z,20.70
2019-03-22T10:49:42.297Z,20.49
2019-03-22T10:50:41.730Z,20.50
2019-03-22T10:51:41.737Z,20.14
2019-03-22T10:52:41.735Z,20.34
2019-03-22T10:53:41.841Z,20.07
2019-03-22T10:54:41.729Z,19.49
2019-03-22T10:55:41.805Z,19.46
2019-03-22T10:56:41.729Z,19.64
2019-03-22T10:57:41.727Z,19.99
2019-03-22T10:58:41.716Z,20.17
2019-03-22T10:59:41.687Z,20.32
2019-03-22T11:00:41.683Z,20.45
2019-03-22T11:01:48.658Z,20.12
2019-03-22T11:02:41.810Z,20.20
2019-03-22T11:03:41.762Z,20.09
2019-03-22T11:04:41.690Z,20.18
2019-03-22T11:05:41.801Z,20.39
2019-03-22T11:06:41.745Z,20.46
2019-03-22T11:07:41.815Z,20.75
2019-03-22T11:08:41.750Z,21.01
2019-03-22T11:09:41.853Z,21.17
2019-03-22T11:10:41.751Z,21.18
2019-03-22T11:11:41.817Z,21.43
2019-03-22T11:12:41.742Z,21.35
2019-03-22T11:13:41.751Z,21.46
2019-03-22T11:14:41.819Z,21.25
2019-03-22T11:15:48.407Z,21.32
2019-03-22T11:16:41.759Z,21.09
2019-03-22T11:17:41.832Z,21.28
2019-03-22T11:18:41.836Z,21.32
2019-03-22T11:19:41.762Z,21.14
2019-03-22T11:20:41.775Z,21.08
2019-03-22T11:21:41.778Z,20.86
2019-03-22T11:22:41.735Z,20.91
2019-03-22T11:23:41.794Z,21.09
2019-03-22T11:24:41.856Z,20.88
2019-03-22T11:25:41.838Z,20.60
2019-03-22T11:26:41.824Z,20.54
2019-03-22T11:27:41.841Z,20.28
2019-03-22T11:28:41.775Z,20.39
2019-03-22T11:29:41.839Z,20.69
2019-03-22T11:30:41.767Z,20.91
2019-03-22T11:31:41.838Z,20.98
2019-03-22T11:32:41.766Z,20.99
2019-03-22T11:33:41.854Z,21.28
2019-03-22T11:34:41.838Z,21.46
2019-03-22T11:35:41.732Z,21.62
2019-03-22T11:36:41.844Z,21.17
2019-03-22T11:37:41.775Z,20.90
2019-03-22T11:38:41.793Z,20.95
2019-03-22T11:39:41.782Z,21.04
2019-03-22T11:40:41.771Z,21.10
2019-03-22T11:41:41.854Z,21.04
2019-03-22T11:43:41.782Z,21.28
2019-03-22T11:44:41.868Z,21.50
2019-03-22T11:45:41.778Z,21.62
2019-03-22T11:46:41.779Z,21.31
2019-03-22T11:47:41.874Z,21.21
2019-03-22T11:48:41.780Z,21.16
2019-03-22T11:49:41.798Z,20.86
2019-03-22T11:50:41.780Z,20.68
2019-03-22T11:51:41.852Z,20.60
2019-03-22T11:52:41.876Z,20.83
2019-03-22T11:53:41.861Z,21.22
2019-03-22T11:54:41.800Z,21.25
2019-03-22T11:55:41.787Z,21.49
2019-03-22T11:56:41.791Z,21.73
2019-03-22T11:57:41.792Z,21.93
2019-03-22T11:58:41.831Z,22.12
2019-03-22T11:59:41.787Z,22.16
2019-03-22T12:00:41.871Z,22.21
2019-03-22T12:01:41.829Z,22.30
2019-03-22T12:02:41.855Z,22.45
2019-03-22T12:03:41.793Z,22.46
2019-03-22T12:04:41.858Z,22.68
2019-03-22T12:05:41.863Z,22.31
2019-03-22T12:06:41.869Z,22.02
2019-03-22T12:07:41.861Z,21.82
2019-03-22T12:08:41.800Z,21.91
2019-03-22T12:09:41.796Z,22.10
2019-03-22T12:10:41.880Z,21.61
2019-03-22T12:11:42.245Z,21.76
2019-03-22T12:12:41.798Z,21.97
2019-03-22T12:13:41.818Z,22.06
2019-03-22T12:14:41.868Z,22.21
2019-03-22T12:15:41.868Z,22.48
2019-03-22T12:16:41.818Z,22.59
2019-03-22T12:17:41.868Z,22.75
2019-03-22T12:18:41.863Z,22.52
2019-03-22T12:19:41.793Z,22.52
2019-03-22T12:20:41.862Z,22.60
2019-03-22T12:21:41.787Z,22.65
2019-03-22T12:22:41.867Z,22.75
2019-03-22T12:23:41.794Z,22.70
2019-03-22T12:24:41.763Z,22.97
2019-03-22T12:25:41.796Z,23.15
2019-03-22T12:26:41.867Z,23.20
2019-03-22T12:27:41.827Z,23.15
2019-03-22T12:28:41.889Z,23.11
2019-03-22T12:29:41.899Z,22.95
2019-03-22T12:30:41.808Z,23.06
2019-03-22T12:31:41.882Z,23.11
2019-03-22T12:32:41.823Z,23.20
2019-03-22T12:33:41.779Z,23.24
2019-03-22T12:34:41.810Z,23.33
2019-03-22T12:35:42.673Z,22.95
2019-03-22T12:36:41.945Z,23.19
2019-03-22T12:37:41.886Z,23.38
2019-03-22T12:38:41.893Z,23.37
2019-03-22T12:39:42.087Z,23.35
2019-03-22T12:40:41.885Z,23.20
2019-03-22T12:41:41.857Z,23.15
2019-03-22T12:42:41.817Z,22.75
2019-03-22T12:43:41.833Z,22.64
2019-03-22T12:44:41.830Z,22.54
2019-03-22T12:45:41.920Z,22.53
2019-03-22T12:46:41.893Z,22.46
2019-03-22T12:47:41.847Z,22.50
2019-03-22T12:48:41.804Z,22.28
2019-03-22T12:49:41.882Z,22.39
2019-03-22T12:50:41.876Z,22.70
2019-03-22T12:51:41.886Z,22.65
2019-03-22T12:52:41.876Z,22.93
2019-03-22T12:53:41.799Z,23.05
2019-03-22T12:54:41.811Z,22.67
2019-03-22T12:55:41.893Z,22.59
2019-03-22T12:56:41.812Z,22.50
2019-03-22T12:57:41.846Z,22.35
2019-03-22T12:58:41.838Z,22.53
2019-03-22T12:59:41.901Z,22.82
2019-03-22T13:00:41.860Z,22.86
2019-03-22T13:01:41.920Z,23.01
2019-03-22T13:02:42.578Z,22.64
2019-03-22T13:03:41.900Z,22.67
2019-03-22T13:04:41.902Z,22.76
2019-03-22T13:05:41.849Z,22.83
2019-03-22T13:06:41.907Z,22.87
2019-03-22T13:07:41.835Z,22.91
2019-03-22T13:08:41.865Z,22.90
2019-03-22T13:09:41.905Z,23.12
2019-03-22T13:10:41.842Z,23.33
2019-03-22T13:11:41.868Z,23.45